sensor_id;sensor_type;location;lat;lon;timestamp;temperature;humidity
38514;DHT22;24282;48.400;10.808;2024-02-04T00:02:20;7.00;81.70
38514;DHT22;24282;48.400;10.808;2024-02-04T00:04:48;7.00;81.90
38514;DHT22;24282;48.400;10.808;2024-02-04T00:07:14;7.00;81.90
38514;DHT22;24282;48.400;10.808;2024-02-04T00:09:39;7.00;82.00
38514;DHT22;24282;48.400;10.808;2024-02-04T00:12:05;6.90;82.00
38514;DHT22;24282;48.400;10.808;2024-02-04T00:14:32;6.90;82.10
38514;DHT22;24282;48.400;10.808;2024-02-04T00:16:58;6.90;82.00
38514;DHT22;24282;48.400;10.808;2024-02-04T00:19:24;6.90;81.90
38514;DHT22;24282;48.400;10.808;2024-02-04T00:21:50;7.00;81.80
38514;DHT22;24282;48.400;10.808;2024-02-04T00:24:16;6.90;81.80
38514;DHT22;24282;48.400;10.808;2024-02-04T00:26:44;6.90;81.90
38514;DHT22;24282;48.400;10.808;2024-02-04T00:29:09;6.90;82.00
38514;DHT22;24282;48.400;10.808;2024-02-04T00:31:35;6.90;82.00
38514;DHT22;24282;48.400;10.808;2024-02-04T00:34:01;6.90;82.10
38514;DHT22;24282;48.400;10.808;2024-02-04T00:36:27;6.90;82.10
38514;DHT22;24282;48.400;10.808;2024-02-04T00:38:52;6.90;82.10
38514;DHT22;24282;48.400;10.808;2024-02-04T00:41:18;7.00;82.10
38514;DHT22;24282;48.400;10.808;2024-02-04T00:43:44;6.90;81.90
38514;DHT22;24282;48.400;10.808;2024-02-04T00:46:10;6.90;82.00
38514;DHT22;24282;48.400;10.808;2024-02-04T00:48:38;6.90;82.10
38514;DHT22;24282;48.400;10.808;2024-02-04T00:51:06;6.90;81.80
38514;DHT22;24282;48.400;10.808;2024-02-04T00:53:32;6.90;81.80
38514;DHT22;24282;48.400;10.808;2024-02-04T00:56:03;7.00;81.80
38514;DHT22;24282;48.400;10.808;2024-02-04T00:58:28;6.90;81.70
38514;DHT22;24282;48.400;10.808;2024-02-04T01:00:54;6.90;81.70
38514;DHT22;24282;48.400;10.808;2024-02-04T01:03:20;6.90;81.90
38514;DHT22;24282;48.400;10.808;2024-02-04T01:05:46;6.90;81.90
38514;DHT22;24282;48.400;10.808;2024-02-04T01:08:11;6.90;81.90
38514;DHT22;24282;48.400;10.808;2024-02-04T01:10:37;6.90;81.80
38514;DHT22;24282;48.400;10.808;2024-02-04T01:13:06;6.90;81.60
38514;DHT22;24282;48.400;10.808;2024-02-04T01:15:31;6.90;81.60
38514;DHT22;24282;48.400;10.808;2024-02-04T01:17:57;6.80;81.70
38514;DHT22;24282;48.400;10.808;2024-02-04T01:20:23;6.80;81.70
38514;DHT22;24282;48.400;10.808;2024-02-04T01:22:48;6.90;81.70
38514;DHT22;24282;48.400;10.808;2024-02-04T01:25:14;6.90;81.40
38514;DHT22;24282;48.400;10.808;2024-02-04T01:27:40;6.90;81.20
38514;DHT22;24282;48.400;10.808;2024-02-04T01:30:06;6.80;81.30
38514;DHT22;24282;48.400;10.808;2024-02-04T01:32:34;6.90;81.20
38514;DHT22;24282;48.400;10.808;2024-02-04T01:35:00;6.80;81.00
38514;DHT22;24282;48.400;10.808;2024-02-04T01:37:26;6.90;80.80
38514;DHT22;24282;48.400;10.808;2024-02-04T01:39:52;6.90;80.70
38514;DHT22;24282;48.400;10.808;2024-02-04T01:42:17;6.90;80.80
38514;DHT22;24282;48.400;10.808;2024-02-04T01:44:43;6.90;80.40
38514;DHT22;24282;48.400;10.808;2024-02-04T01:47:09;6.90;80.40
38514;DHT22;24282;48.400;10.808;2024-02-04T01:49:35;6.80;80.40
38514;DHT22;24282;48.400;10.808;2024-02-04T01:52:01;6.80;80.30
38514;DHT22;24282;48.400;10.808;2024-02-04T01:54:29;6.80;80.40
38514;DHT22;24282;48.400;10.808;2024-02-04T01:56:58;6.80;80.40
38514;DHT22;24282;48.400;10.808;2024-02-04T01:59:24;6.80;80.30
38514;DHT22;24282;48.400;10.808;2024-02-04T02:01:59;6.80;80.20
38514;DHT22;24282;48.400;10.808;2024-02-04T02:04:25;6.80;80.20
38514;DHT22;24282;48.400;10.808;2024-02-04T02:06:53;6.80;80.20
38514;DHT22;24282;48.400;10.808;2024-02-04T02:09:19;6.80;80.20
38514;DHT22;24282;48.400;10.808;2024-02-04T02:11:47;6.80;80.00
38514;DHT22;24282;48.400;10.808;2024-02-04T02:14:23;6.80;80.20
38514;DHT22;24282;48.400;10.808;2024-02-04T02:16:49;6.80;80.20
38514;DHT22;24282;48.400;10.808;2024-02-04T02:24:42;6.90;79.90
38514;DHT22;24282;48.400;10.808;2024-02-04T02:27:08;6.90;80.00
38514;DHT22;24282;48.400;10.808;2024-02-04T02:29:33;7.00;79.90
38514;DHT22;24282;48.400;10.808;2024-02-04T02:32:00;6.90;79.80
38514;DHT22;24282;48.400;10.808;2024-02-04T02:34:27;6.90;80.00
38514;DHT22;24282;48.400;10.808;2024-02-04T02:36:57;6.90;80.00
38514;DHT22;24282;48.400;10.808;2024-02-04T02:39:34;6.90;79.80
38514;DHT22;24282;48.400;10.808;2024-02-04T02:42:02;6.90;79.90
38514;DHT22;24282;48.400;10.808;2024-02-04T02:44:29;6.90;80.00
38514;DHT22;24282;48.400;10.808;2024-02-04T02:46:57;6.90;80.10
38514;DHT22;24282;48.400;10.808;2024-02-04T02:49:24;6.90;79.90
38514;DHT22;24282;48.400;10.808;2024-02-04T02:51:50;6.90;79.90
38514;DHT22;24282;48.400;10.808;2024-02-04T02:54:15;6.90;80.00
38514;DHT22;24282;48.400;10.808;2024-02-04T02:56:41;6.90;79.90
38514;DHT22;24282;48.400;10.808;2024-02-04T02:59:07;6.90;79.90
38514;DHT22;24282;48.400;10.808;2024-02-04T03:01:33;6.90;79.70
38514;DHT22;24282;48.400;10.808;2024-02-04T03:03:59;6.90;79.80
38514;DHT22;24282;48.400;10.808;2024-02-04T03:06:25;6.90;79.90
38514;DHT22;24282;48.400;10.808;2024-02-04T03:08:50;6.90;79.80
38514;DHT22;24282;48.400;10.808;2024-02-04T03:11:16;7.00;79.50
38514;DHT22;24282;48.400;10.808;2024-02-04T03:13:42;6.90;79.70
38514;DHT22;24282;48.400;10.808;2024-02-04T03:16:11;6.90;79.70
38514;DHT22;24282;48.400;10.808;2024-02-04T03:18:40;6.90;79.80
38514;DHT22;24282;48.400;10.808;2024-02-04T03:21:16;7.00;79.60
38514;DHT22;24282;48.400;10.808;2024-02-04T03:23:43;7.00;79.90
38514;DHT22;24282;48.400;10.808;2024-02-04T03:26:09;7.00;79.70
38514;DHT22;24282;48.400;10.808;2024-02-04T03:28:36;6.90;79.70
38514;DHT22;24282;48.400;10.808;2024-02-04T03:31:02;6.90;79.80
38514;DHT22;24282;48.400;10.808;2024-02-04T03:33:28;6.80;80.00
38514;DHT22;24282;48.400;10.808;2024-02-04T03:35:54;6.80;80.10
38514;DHT22;24282;48.400;10.808;2024-02-04T03:38:20;6.80;80.10
38514;DHT22;24282;48.400;10.808;2024-02-04T03:40:46;6.80;80.10
38514;DHT22;24282;48.400;10.808;2024-02-04T03:43:15;6.80;80.20
38514;DHT22;24282;48.400;10.808;2024-02-04T03:45:41;6.80;80.10
38514;DHT22;24282;48.400;10.808;2024-02-04T03:48:06;6.80;80.10
38514;DHT22;24282;48.400;10.808;2024-02-04T03:50:32;6.90;79.90
38514;DHT22;24282;48.400;10.808;2024-02-04T03:52:58;6.80;80.10
38514;DHT22;24282;48.400;10.808;2024-02-04T03:55:24;6.80;80.30
38514;DHT22;24282;48.400;10.808;2024-02-04T03:57:51;6.90;79.90
38514;DHT22;24282;48.400;10.808;2024-02-04T04:00:17;6.90;80.00
38514;DHT22;24282;48.400;10.808;2024-02-04T04:02:43;6.90;79.80
38514;DHT22;24282;48.400;10.808;2024-02-04T04:05:12;6.90;79.90
38514;DHT22;24282;48.400;10.808;2024-02-04T04:07:40;6.90;79.80
38514;DHT22;24282;48.400;10.808;2024-02-04T04:10:07;6.90;79.80
38514;DHT22;24282;48.400;10.808;2024-02-04T04:12:32;6.80;79.70
38514;DHT22;24282;48.400;10.808;2024-02-04T04:14:58;6.90;79.80
38514;DHT22;24282;48.400;10.808;2024-02-04T04:17:24;6.90;79.90
38514;DHT22;24282;48.400;10.808;2024-02-04T04:19:50;6.80;80.00
38514;DHT22;24282;48.400;10.808;2024-02-04T04:22:15;6.80;80.00
38514;DHT22;24282;48.400;10.808;2024-02-04T04:24:41;6.80;80.00
38514;DHT22;24282;48.400;10.808;2024-02-04T04:27:07;6.80;80.10
38514;DHT22;24282;48.400;10.808;2024-02-04T04:29:32;6.80;79.90
38514;DHT22;24282;48.400;10.808;2024-02-04T04:31:58;6.80;79.90
38514;DHT22;24282;48.400;10.808;2024-02-04T04:34:24;6.70;80.10
38514;DHT22;24282;48.400;10.808;2024-02-04T04:36:49;6.80;79.90
38514;DHT22;24282;48.400;10.808;2024-02-04T04:39:15;6.80;79.70
38514;DHT22;24282;48.400;10.808;2024-02-04T04:41:43;6.70;80.10
38514;DHT22;24282;48.400;10.808;2024-02-04T04:44:09;6.70;80.30
38514;DHT22;24282;48.400;10.808;2024-02-04T04:46:38;6.70;80.40
38514;DHT22;24282;48.400;10.808;2024-02-04T04:49:04;6.70;80.70
38514;DHT22;24282;48.400;10.808;2024-02-04T04:51:30;6.70;81.00
38514;DHT22;24282;48.400;10.808;2024-02-04T04:53:56;6.70;81.20
38514;DHT22;24282;48.400;10.808;2024-02-04T04:56:21;6.70;80.90
38514;DHT22;24282;48.400;10.808;2024-02-04T04:58:47;6.70;81.10
38514;DHT22;24282;48.400;10.808;2024-02-04T05:01:13;6.70;80.90
38514;DHT22;24282;48.400;10.808;2024-02-04T05:03:40;6.70;81.10
38514;DHT22;24282;48.400;10.808;2024-02-04T05:06:06;6.70;81.60
38514;DHT22;24282;48.400;10.808;2024-02-04T05:08:31;6.70;81.50
38514;DHT22;24282;48.400;10.808;2024-02-04T05:10:57;6.70;81.50
38514;DHT22;24282;48.400;10.808;2024-02-04T05:13:23;6.60;81.80
38514;DHT22;24282;48.400;10.808;2024-02-04T05:15:48;6.50;82.10
38514;DHT22;24282;48.400;10.808;2024-02-04T05:18:14;6.60;82.10
38514;DHT22;24282;48.400;10.808;2024-02-04T05:20:40;6.50;82.10
38514;DHT22;24282;48.400;10.808;2024-02-04T05:23:05;6.50;82.10
38514;DHT22;24282;48.400;10.808;2024-02-04T05:25:31;6.50;82.40
38514;DHT22;24282;48.400;10.808;2024-02-04T05:27:57;6.50;82.20
38514;DHT22;24282;48.400;10.808;2024-02-04T05:30:23;6.50;82.30
38514;DHT22;24282;48.400;10.808;2024-02-04T05:32:48;6.50;82.30
38514;DHT22;24282;48.400;10.808;2024-02-04T05:35:14;6.40;82.50
38514;DHT22;24282;48.400;10.808;2024-02-04T05:37:40;6.40;82.50
38514;DHT22;24282;48.400;10.808;2024-02-04T05:40:06;6.30;82.70
38514;DHT22;24282;48.400;10.808;2024-02-04T05:42:32;6.30;82.80
38514;DHT22;24282;48.400;10.808;2024-02-04T05:44:58;6.40;82.60
38514;DHT22;24282;48.400;10.808;2024-02-04T05:47:24;6.40;82.70
38514;DHT22;24282;48.400;10.808;2024-02-04T05:49:49;6.40;82.40
38514;DHT22;24282;48.400;10.808;2024-02-04T05:52:15;6.40;82.60
38514;DHT22;24282;48.400;10.808;2024-02-04T05:54:41;6.50;82.20
38514;DHT22;24282;48.400;10.808;2024-02-04T05:57:07;6.40;82.40
38514;DHT22;24282;48.400;10.808;2024-02-04T05:59:33;6.40;82.40
38514;DHT22;24282;48.400;10.808;2024-02-04T06:02:00;6.40;82.60
38514;DHT22;24282;48.400;10.808;2024-02-04T06:04:26;6.40;82.70
38514;DHT22;24282;48.400;10.808;2024-02-04T06:06:51;6.40;82.50
38514;DHT22;24282;48.400;10.808;2024-02-04T06:09:17;6.40;82.30
38514;DHT22;24282;48.400;10.808;2024-02-04T06:11:46;6.40;82.40
38514;DHT22;24282;48.400;10.808;2024-02-04T06:14:12;6.40;82.20
38514;DHT22;24282;48.400;10.808;2024-02-04T06:16:38;6.40;82.40
38514;DHT22;24282;48.400;10.808;2024-02-04T06:19:04;6.40;82.10
38514;DHT22;24282;48.400;10.808;2024-02-04T06:21:31;6.40;82.20
38514;DHT22;24282;48.400;10.808;2024-02-04T06:23:56;6.40;82.20
38514;DHT22;24282;48.400;10.808;2024-02-04T06:26:22;6.40;82.20
38514;DHT22;24282;48.400;10.808;2024-02-04T06:28:48;6.30;82.30
38514;DHT22;24282;48.400;10.808;2024-02-04T06:31:16;6.40;82.20
38514;DHT22;24282;48.400;10.808;2024-02-04T06:33:42;6.40;82.00
38514;DHT22;24282;48.400;10.808;2024-02-04T06:36:11;6.40;81.80
38514;DHT22;24282;48.400;10.808;2024-02-04T06:38:36;6.50;81.80
38514;DHT22;24282;48.400;10.808;2024-02-04T06:41:02;6.40;81.90
38514;DHT22;24282;48.400;10.808;2024-02-04T06:43:28;6.40;82.10
38514;DHT22;24282;48.400;10.808;2024-02-04T06:45:54;6.40;82.00
38514;DHT22;24282;48.400;10.808;2024-02-04T06:48:20;6.40;81.90
38514;DHT22;24282;48.400;10.808;2024-02-04T06:50:46;6.40;82.00
38514;DHT22;24282;48.400;10.808;2024-02-04T06:53:14;6.40;81.80
38514;DHT22;24282;48.400;10.808;2024-02-04T06:55:39;6.30;81.90
38514;DHT22;24282;48.400;10.808;2024-02-04T06:58:05;6.40;81.90
38514;DHT22;24282;48.400;10.808;2024-02-04T07:00:31;6.40;81.80
38514;DHT22;24282;48.400;10.808;2024-02-04T07:02:57;6.40;82.00
38514;DHT22;24282;48.400;10.808;2024-02-04T07:05:22;6.40;82.00
38514;DHT22;24282;48.400;10.808;2024-02-04T07:07:49;6.40;82.00
38514;DHT22;24282;48.400;10.808;2024-02-04T07:10:15;6.30;82.20
38514;DHT22;24282;48.400;10.808;2024-02-04T07:12:41;6.40;82.00
38514;DHT22;24282;48.400;10.808;2024-02-04T07:15:07;6.50;81.90
38514;DHT22;24282;48.400;10.808;2024-02-04T07:17:34;6.40;82.10
38514;DHT22;24282;48.400;10.808;2024-02-04T07:20:03;6.40;82.10
38514;DHT22;24282;48.400;10.808;2024-02-04T07:22:30;6.40;82.10
38514;DHT22;24282;48.400;10.808;2024-02-04T07:24:56;6.40;82.30
38514;DHT22;24282;48.400;10.808;2024-02-04T07:27:22;6.50;82.10
38514;DHT22;24282;48.400;10.808;2024-02-04T07:29:47;6.40;82.10
38514;DHT22;24282;48.400;10.808;2024-02-04T07:32:16;6.40;82.10
38514;DHT22;24282;48.400;10.808;2024-02-04T07:34:42;6.40;82.20
38514;DHT22;24282;48.400;10.808;2024-02-04T07:37:11;6.40;82.20
38514;DHT22;24282;48.400;10.808;2024-02-04T07:39:36;6.50;82.20
38514;DHT22;24282;48.400;10.808;2024-02-04T07:42:02;6.50;81.90
38514;DHT22;24282;48.400;10.808;2024-02-04T07:44:28;6.50;82.00
38514;DHT22;24282;48.400;10.808;2024-02-04T07:46:54;6.50;81.90
38514;DHT22;24282;48.400;10.808;2024-02-04T07:49:20;6.40;82.00
38514;DHT22;24282;48.400;10.808;2024-02-04T07:51:46;6.50;81.80
38514;DHT22;24282;48.400;10.808;2024-02-04T07:54:12;6.50;81.70
38514;DHT22;24282;48.400;10.808;2024-02-04T07:56:37;6.50;81.50
38514;DHT22;24282;48.400;10.808;2024-02-04T07:59:03;6.50;81.60
38514;DHT22;24282;48.400;10.808;2024-02-04T08:01:29;6.50;81.80
38514;DHT22;24282;48.400;10.808;2024-02-04T08:03:55;6.50;81.50
38514;DHT22;24282;48.400;10.808;2024-02-04T08:06:21;6.50;81.60
38514;DHT22;24282;48.400;10.808;2024-02-04T08:08:47;6.60;81.00
38514;DHT22;24282;48.400;10.808;2024-02-04T08:11:17;6.60;81.10
38514;DHT22;24282;48.400;10.808;2024-02-04T08:13:43;6.60;81.30
38514;DHT22;24282;48.400;10.808;2024-02-04T08:16:10;6.70;81.10
38514;DHT22;24282;48.400;10.808;2024-02-04T08:18:36;6.60;81.30
38514;DHT22;24282;48.400;10.808;2024-02-04T08:21:03;6.60;81.30
38514;DHT22;24282;48.400;10.808;2024-02-04T08:23:29;6.70;80.80
38514;DHT22;24282;48.400;10.808;2024-02-04T08:25:54;6.70;80.80
38514;DHT22;24282;48.400;10.808;2024-02-04T08:28:22;6.70;80.50
38514;DHT22;24282;48.400;10.808;2024-02-04T08:30:49;6.70;80.50
38514;DHT22;24282;48.400;10.808;2024-02-04T08:33:15;6.70;80.70
38514;DHT22;24282;48.400;10.808;2024-02-04T08:35:40;6.70;80.70
38514;DHT22;24282;48.400;10.808;2024-02-04T08:38:06;6.70;81.00
38514;DHT22;24282;48.400;10.808;2024-02-04T08:40:32;6.70;80.80
38514;DHT22;24282;48.400;10.808;2024-02-04T08:42:57;6.70;81.10
38514;DHT22;24282;48.400;10.808;2024-02-04T08:45:23;6.80;80.70
38514;DHT22;24282;48.400;10.808;2024-02-04T08:47:49;6.90;80.20
38514;DHT22;24282;48.400;10.808;2024-02-04T08:50:14;6.90;80.20
38514;DHT22;24282;48.400;10.808;2024-02-04T08:52:41;6.90;80.10
38514;DHT22;24282;48.400;10.808;2024-02-04T08:55:07;6.90;80.60
38514;DHT22;24282;48.400;10.808;2024-02-04T08:57:32;6.90;80.30
38514;DHT22;24282;48.400;10.808;2024-02-04T08:59:58;7.00;80.10
38514;DHT22;24282;48.400;10.808;2024-02-04T09:02:24;6.90;80.30
38514;DHT22;24282;48.400;10.808;2024-02-04T09:04:50;7.00;80.50
38514;DHT22;24282;48.400;10.808;2024-02-04T09:07:15;7.00;80.00
38514;DHT22;24282;48.400;10.808;2024-02-04T09:09:41;7.00;80.30
38514;DHT22;24282;48.400;10.808;2024-02-04T09:12:09;7.00;80.30
38514;DHT22;24282;48.400;10.808;2024-02-04T09:14:35;7.10;80.20
38514;DHT22;24282;48.400;10.808;2024-02-04T09:17:04;7.10;80.20
38514;DHT22;24282;48.400;10.808;2024-02-04T09:19:30;7.10;80.30
38514;DHT22;24282;48.400;10.808;2024-02-04T09:21:56;7.20;79.90
38514;DHT22;24282;48.400;10.808;2024-02-04T09:24:22;7.20;80.00
38514;DHT22;24282;48.400;10.808;2024-02-04T09:26:48;7.20;79.50
38514;DHT22;24282;48.400;10.808;2024-02-04T09:29:14;7.20;79.70
38514;DHT22;24282;48.400;10.808;2024-02-04T09:31:40;7.20;79.60
38514;DHT22;24282;48.400;10.808;2024-02-04T09:34:05;7.20;80.10
38514;DHT22;24282;48.400;10.808;2024-02-04T09:36:31;7.30;79.70
38514;DHT22;24282;48.400;10.808;2024-02-04T09:38:57;7.30;79.60
38514;DHT22;24282;48.400;10.808;2024-02-04T09:41:22;7.30;79.80
38514;DHT22;24282;48.400;10.808;2024-02-04T09:43:50;7.20;79.50
38514;DHT22;24282;48.400;10.808;2024-02-04T09:46:17;7.30;79.40
38514;DHT22;24282;48.400;10.808;2024-02-04T09:48:45;7.20;79.40
38514;DHT22;24282;48.400;10.808;2024-02-04T09:51:11;7.30;79.60
38514;DHT22;24282;48.400;10.808;2024-02-04T09:53:42;7.30;79.50
38514;DHT22;24282;48.400;10.808;2024-02-04T09:56:09;7.30;79.60
38514;DHT22;24282;48.400;10.808;2024-02-04T09:58:36;7.30;79.40
38514;DHT22;24282;48.400;10.808;2024-02-04T10:01:04;7.40;79.40
38514;DHT22;24282;48.400;10.808;2024-02-04T10:03:30;7.30;79.60
38514;DHT22;24282;48.400;10.808;2024-02-04T10:05:56;7.40;79.50
38514;DHT22;24282;48.400;10.808;2024-02-04T10:08:22;7.40;79.70
38514;DHT22;24282;48.400;10.808;2024-02-04T10:10:48;7.40;79.10
38514;DHT22;24282;48.400;10.808;2024-02-04T10:13:14;7.40;79.20
38514;DHT22;24282;48.400;10.808;2024-02-04T10:15:39;7.40;79.10
38514;DHT22;24282;48.400;10.808;2024-02-04T10:18:06;7.40;79.20
38514;DHT22;24282;48.400;10.808;2024-02-04T10:20:33;7.40;79.30
38514;DHT22;24282;48.400;10.808;2024-02-04T10:22:59;7.40;79.30
38514;DHT22;24282;48.400;10.808;2024-02-04T10:25:24;7.40;79.20
38514;DHT22;24282;48.400;10.808;2024-02-04T10:27:50;7.40;79.40
38514;DHT22;24282;48.400;10.808;2024-02-04T10:30:21;7.30;79.60
38514;DHT22;24282;48.400;10.808;2024-02-04T10:32:51;7.50;79.50
38514;DHT22;24282;48.400;10.808;2024-02-04T10:35:16;7.50;79.20
38514;DHT22;24282;48.400;10.808;2024-02-04T10:37:45;7.50;79.40
38514;DHT22;24282;48.400;10.808;2024-02-04T10:40:11;7.60;79.00
38514;DHT22;24282;48.400;10.808;2024-02-04T10:42:38;7.70;78.60
38514;DHT22;24282;48.400;10.808;2024-02-04T10:45:08;7.70;78.50
38514;DHT22;24282;48.400;10.808;2024-02-04T10:47:37;7.70;78.50
38514;DHT22;24282;48.400;10.808;2024-02-04T10:50:04;7.60;78.70
38514;DHT22;24282;48.400;10.808;2024-02-04T10:52:35;7.60;78.90
38514;DHT22;24282;48.400;10.808;2024-02-04T10:55:03;7.60;79.00
38514;DHT22;24282;48.400;10.808;2024-02-04T10:57:30;7.60;79.20
38514;DHT22;24282;48.400;10.808;2024-02-04T10:59:56;7.70;78.60
38514;DHT22;24282;48.400;10.808;2024-02-04T11:02:24;7.70;78.70
38514;DHT22;24282;48.400;10.808;2024-02-04T11:04:51;7.80;78.60
38514;DHT22;24282;48.400;10.808;2024-02-04T11:07:19;7.80;78.90
38514;DHT22;24282;48.400;10.808;2024-02-04T11:09:46;7.90;78.40
38514;DHT22;24282;48.400;10.808;2024-02-04T11:12:17;7.90;78.10
38514;DHT22;24282;48.400;10.808;2024-02-04T11:14:46;8.00;78.00
38514;DHT22;24282;48.400;10.808;2024-02-04T11:20:30;8.10;77.60
38514;DHT22;24282;48.400;10.808;2024-02-04T11:23:22;8.10;77.60
38514;DHT22;24282;48.400;10.808;2024-02-04T11:25:53;8.20;77.60
38514;DHT22;24282;48.400;10.808;2024-02-04T11:28:21;8.20;77.30
38514;DHT22;24282;48.400;10.808;2024-02-04T11:30:48;8.20;77.30
38514;DHT22;24282;48.400;10.808;2024-02-04T11:33:18;8.20;77.10
38514;DHT22;24282;48.400;10.808;2024-02-04T11:35:44;8.30;77.70
38514;DHT22;24282;48.400;10.808;2024-02-04T11:38:10;8.40;76.80
38514;DHT22;24282;48.400;10.808;2024-02-04T11:40:41;8.50;76.90
38514;DHT22;24282;48.400;10.808;2024-02-04T11:43:10;8.50;76.60
38514;DHT22;24282;48.400;10.808;2024-02-04T11:45:40;8.50;76.60
38514;DHT22;24282;48.400;10.808;2024-02-04T11:48:10;8.50;76.80
38514;DHT22;24282;48.400;10.808;2024-02-04T11:50:37;8.50;76.90
38514;DHT22;24282;48.400;10.808;2024-02-04T11:55:31;8.70;76.60
38514;DHT22;24282;48.400;10.808;2024-02-04T11:57:57;8.70;76.70
38514;DHT22;24282;48.400;10.808;2024-02-04T12:00:25;8.70;76.80
38514;DHT22;24282;48.400;10.808;2024-02-04T12:03:04;8.90;75.90
38514;DHT22;24282;48.400;10.808;2024-02-04T12:05:35;8.90;75.40
38514;DHT22;24282;48.400;10.808;2024-02-04T12:08:05;8.80;75.40
38514;DHT22;24282;48.400;10.808;2024-02-04T12:10:34;8.90;75.60
38514;DHT22;24282;48.400;10.808;2024-02-04T12:13:05;8.90;75.70
38514;DHT22;24282;48.400;10.808;2024-02-04T12:15:34;8.90;75.90
38514;DHT22;24282;48.400;10.808;2024-02-04T12:18:09;8.90;76.00
38514;DHT22;24282;48.400;10.808;2024-02-04T12:20:36;9.20;74.90
38514;DHT22;24282;48.400;10.808;2024-02-04T12:23:06;9.40;75.20
38514;DHT22;24282;48.400;10.808;2024-02-04T12:25:33;9.50;74.30
38514;DHT22;24282;48.400;10.808;2024-02-04T12:28:00;9.80;73.40
38514;DHT22;24282;48.400;10.808;2024-02-04T12:30:29;9.90;73.30
38514;DHT22;24282;48.400;10.808;2024-02-04T12:32:58;9.90;72.80
38514;DHT22;24282;48.400;10.808;2024-02-04T12:35:25;9.80;72.80
38514;DHT22;24282;48.400;10.808;2024-02-04T12:37:52;9.70;73.30
38514;DHT22;24282;48.400;10.808;2024-02-04T12:40:27;9.70;73.30
38514;DHT22;24282;48.400;10.808;2024-02-04T12:43:00;9.80;72.90
38514;DHT22;24282;48.400;10.808;2024-02-04T12:45:28;9.70;72.90
38514;DHT22;24282;48.400;10.808;2024-02-04T12:47:55;9.80;73.10
38514;DHT22;24282;48.400;10.808;2024-02-04T12:50:21;9.80;73.50
38514;DHT22;24282;48.400;10.808;2024-02-04T12:52:48;10.00;72.60
38514;DHT22;24282;48.400;10.808;2024-02-04T12:55:25;10.00;72.70
38514;DHT22;24282;48.400;10.808;2024-02-04T12:58:02;10.00;72.40
38514;DHT22;24282;48.400;10.808;2024-02-04T13:00:29;10.00;72.80
38514;DHT22;24282;48.400;10.808;2024-02-04T13:02:56;10.00;72.50
38514;DHT22;24282;48.400;10.808;2024-02-04T13:05:24;10.10;72.40
38514;DHT22;24282;48.400;10.808;2024-02-04T13:07:55;10.00;72.50
38514;DHT22;24282;48.400;10.808;2024-02-04T13:10:31;10.10;72.90
38514;DHT22;24282;48.400;10.808;2024-02-04T13:13:09;10.20;72.70
38514;DHT22;24282;48.400;10.808;2024-02-04T13:15:42;10.20;72.40
38514;DHT22;24282;48.400;10.808;2024-02-04T13:18:09;10.20;72.50
38514;DHT22;24282;48.400;10.808;2024-02-04T13:20:37;10.10;72.60
38514;DHT22;24282;48.400;10.808;2024-02-04T13:23:06;10.10;72.20
38514;DHT22;24282;48.400;10.808;2024-02-04T13:25:32;10.00;72.60
38514;DHT22;24282;48.400;10.808;2024-02-04T13:27:58;10.10;72.70
38514;DHT22;24282;48.400;10.808;2024-02-04T13:30:24;10.20;72.40
38514;DHT22;24282;48.400;10.808;2024-02-04T13:32:50;10.20;72.30
38514;DHT22;24282;48.400;10.808;2024-02-04T13:35:16;10.10;72.60
38514;DHT22;24282;48.400;10.808;2024-02-04T13:37:44;10.10;73.30
38514;DHT22;24282;48.400;10.808;2024-02-04T13:40:16;10.00;73.20
38514;DHT22;24282;48.400;10.808;2024-02-04T13:42:43;10.00;73.70
38514;DHT22;24282;48.400;10.808;2024-02-04T13:45:09;10.10;73.10
38514;DHT22;24282;48.400;10.808;2024-02-04T13:47:35;10.00;73.10
38514;DHT22;24282;48.400;10.808;2024-02-04T13:50:01;10.00;73.20
38514;DHT22;24282;48.400;10.808;2024-02-04T13:52:28;9.90;73.50
38514;DHT22;24282;48.400;10.808;2024-02-04T13:54:54;9.90;73.80
38514;DHT22;24282;48.400;10.808;2024-02-04T13:57:20;10.00;73.30
38514;DHT22;24282;48.400;10.808;2024-02-04T13:59:46;9.90;73.50
38514;DHT22;24282;48.400;10.808;2024-02-04T14:02:11;9.80;73.60
38514;DHT22;24282;48.400;10.808;2024-02-04T14:04:37;9.80;73.80
38514;DHT22;24282;48.400;10.808;2024-02-04T14:07:03;9.80;74.20
38514;DHT22;24282;48.400;10.808;2024-02-04T14:09:29;9.70;74.20
38514;DHT22;24282;48.400;10.808;2024-02-04T14:11:54;9.70;74.30
38514;DHT22;24282;48.400;10.808;2024-02-04T14:14:22;9.70;74.60
38514;DHT22;24282;48.400;10.808;2024-02-04T14:16:48;9.70;74.80
38514;DHT22;24282;48.400;10.808;2024-02-04T14:19:14;9.60;75.00
38514;DHT22;24282;48.400;10.808;2024-02-04T14:21:41;9.60;75.20
38514;DHT22;24282;48.400;10.808;2024-02-04T14:24:07;9.70;74.60
38514;DHT22;24282;48.400;10.808;2024-02-04T14:26:32;9.70;74.60
38514;DHT22;24282;48.400;10.808;2024-02-04T14:28:58;9.60;74.90
38514;DHT22;24282;48.400;10.808;2024-02-04T14:31:24;9.60;75.30
38514;DHT22;24282;48.400;10.808;2024-02-04T14:33:50;9.50;75.30
38514;DHT22;24282;48.400;10.808;2024-02-04T14:36:16;9.60;75.20
38514;DHT22;24282;48.400;10.808;2024-02-04T14:38:42;9.50;75.30
38514;DHT22;24282;48.400;10.808;2024-02-04T14:41:08;9.60;75.40
38514;DHT22;24282;48.400;10.808;2024-02-04T14:43:37;9.60;75.40
38514;DHT22;24282;48.400;10.808;2024-02-04T14:46:04;9.70;75.20
38514;DHT22;24282;48.400;10.808;2024-02-04T14:48:30;9.70;75.30
38514;DHT22;24282;48.400;10.808;2024-02-04T14:50:56;9.60;75.60
38514;DHT22;24282;48.400;10.808;2024-02-04T14:53:25;9.70;75.40
38514;DHT22;24282;48.400;10.808;2024-02-04T14:55:52;9.60;75.70
38514;DHT22;24282;48.400;10.808;2024-02-04T14:58:17;9.70;75.30
38514;DHT22;24282;48.400;10.808;2024-02-04T15:00:44;9.60;75.70
38514;DHT22;24282;48.400;10.808;2024-02-04T15:03:10;9.60;75.90
38514;DHT22;24282;48.400;10.808;2024-02-04T15:05:36;9.60;76.00
38514;DHT22;24282;48.400;10.808;2024-02-04T15:08:02;9.60;75.90
38514;DHT22;24282;48.400;10.808;2024-02-04T15:10:27;9.60;75.80
38514;DHT22;24282;48.400;10.808;2024-02-04T15:12:53;9.60;75.90
38514;DHT22;24282;48.400;10.808;2024-02-04T15:15:20;9.70;75.70
38514;DHT22;24282;48.400;10.808;2024-02-04T15:17:46;9.70;75.80
38514;DHT22;24282;48.400;10.808;2024-02-04T15:20:12;9.70;75.30
38514;DHT22;24282;48.400;10.808;2024-02-04T15:22:40;9.80;75.20
38514;DHT22;24282;48.400;10.808;2024-02-04T15:25:06;9.80;75.00
38514;DHT22;24282;48.400;10.808;2024-02-04T15:27:32;9.70;75.20
38514;DHT22;24282;48.400;10.808;2024-02-04T15:29:59;9.80;75.20
38514;DHT22;24282;48.400;10.808;2024-02-04T15:32:28;9.80;75.00
38514;DHT22;24282;48.400;10.808;2024-02-04T15:34:54;9.80;75.00
38514;DHT22;24282;48.400;10.808;2024-02-04T15:37:20;9.80;74.70
38514;DHT22;24282;48.400;10.808;2024-02-04T15:39:46;9.80;75.00